sensor_id;sensor_type;location;lat;lon;timestamp;temperature;humidity
7494;DHT22;3788;49.902;8.590;2023-06-14T00:01:37;18.70;53.40
7494;DHT22;3788;49.902;8.590;2023-06-14T00:04:03;18.60;53.50
7494;DHT22;3788;49.902;8.590;2023-06-14T00:06:31;18.60;53.70
7494;DHT22;3788;49.902;8.590;2023-06-14T00:08:59;18.60;53.80
7494;DHT22;3788;49.902;8.590;2023-06-14T00:11:25;18.50;54.00
7494;DHT22;3788;49.902;8.590;2023-06-14T00:13:54;18.40;54.00
7494;DHT22;3788;49.902;8.590;2023-06-14T00:16:20;18.40;54.00
7494;DHT22;3788;49.902;8.590;2023-06-14T00:18:48;18.40;54.30
7494;DHT22;3788;49.902;8.590;2023-06-14T00:21:17;18.40;54.40
7494;DHT22;3788;49.902;8.590;2023-06-14T00:23:44;18.30;54.40
7494;DHT22;3788;49.902;8.590;2023-06-14T00:26:11;18.30;54.60
7494;DHT22;3788;49.902;8.590;2023-06-14T00:28:37;18.30;54.70
7494;DHT22;3788;49.902;8.590;2023-06-14T00:31:05;18.20;54.70
7494;DHT22;3788;49.902;8.590;2023-06-14T00:33:32;18.20;54.90
7494;DHT22;3788;49.902;8.590;2023-06-14T00:35:59;18.20;55.00
7494;DHT22;3788;49.902;8.590;2023-06-14T00:38:25;18.10;55.00
7494;DHT22;3788;49.902;8.590;2023-06-14T00:40:52;18.10;55.30
7494;DHT22;3788;49.902;8.590;2023-06-14T00:43:19;18.00;55.40
7494;DHT22;3788;49.902;8.590;2023-06-14T00:45:45;18.00;55.60
7494;DHT22;3788;49.902;8.590;2023-06-14T00:48:16;17.90;55.70
7494;DHT22;3788;49.902;8.590;2023-06-14T00:50:43;17.90;56.00
7494;DHT22;3788;49.902;8.590;2023-06-14T00:53:11;17.80;56.30
7494;DHT22;3788;49.902;8.590;2023-06-14T00:55:37;17.80;56.60
7494;DHT22;3788;49.902;8.590;2023-06-14T00:58:04;17.60;56.60
7494;DHT22;3788;49.902;8.590;2023-06-14T01:00:31;17.60;56.90
7494;DHT22;3788;49.902;8.590;2023-06-14T01:02:58;17.60;57.00
7494;DHT22;3788;49.902;8.590;2023-06-14T01:05:26;17.50;57.10
7494;DHT22;3788;49.902;8.590;2023-06-14T01:08:05;17.50;57.20
7494;DHT22;3788;49.902;8.590;2023-06-14T01:10:40;17.40;57.20
7494;DHT22;3788;49.902;8.590;2023-06-14T01:13:12;17.40;57.30
7494;DHT22;3788;49.902;8.590;2023-06-14T01:15:41;17.40;57.40
7494;DHT22;3788;49.902;8.590;2023-06-14T01:18:09;17.30;57.40
7494;DHT22;3788;49.902;8.590;2023-06-14T01:20:45;17.30;57.40
7494;DHT22;3788;49.902;8.590;2023-06-14T01:23:16;17.30;57.50
7494;DHT22;3788;49.902;8.590;2023-06-14T01:25:43;17.30;57.50
7494;DHT22;3788;49.902;8.590;2023-06-14T01:28:10;17.20;57.50
7494;DHT22;3788;49.902;8.590;2023-06-14T01:30:39;17.20;57.50
7494;DHT22;3788;49.902;8.590;2023-06-14T01:33:08;17.20;57.60
7494;DHT22;3788;49.902;8.590;2023-06-14T01:35:37;17.20;57.60
7494;DHT22;3788;49.902;8.590;2023-06-14T01:38:04;17.10;57.50
7494;DHT22;3788;49.902;8.590;2023-06-14T01:40:34;17.10;57.60
7494;DHT22;3788;49.902;8.590;2023-06-14T01:43:02;17.10;57.50
7494;DHT22;3788;49.902;8.590;2023-06-14T01:45:30;17.10;57.50
7494;DHT22;3788;49.902;8.590;2023-06-14T01:47:57;17.10;57.60
7494;DHT22;3788;49.902;8.590;2023-06-14T01:50:28;17.10;57.60
7494;DHT22;3788;49.902;8.590;2023-06-14T01:52:54;17.10;57.70
7494;DHT22;3788;49.902;8.590;2023-06-14T01:55:21;17.10;57.70
7494;DHT22;3788;49.902;8.590;2023-06-14T01:57:51;17.10;57.90
7494;DHT22;3788;49.902;8.590;2023-06-14T02:00:18;17.00;57.80
7494;DHT22;3788;49.902;8.590;2023-06-14T02:02:45;17.00;57.90
7494;DHT22;3788;49.902;8.590;2023-06-14T02:05:12;17.00;58.00
7494;DHT22;3788;49.902;8.590;2023-06-14T02:07:38;17.00;58.10
7494;DHT22;3788;49.902;8.590;2023-06-14T02:10:06;16.90;58.20
7494;DHT22;3788;49.902;8.590;2023-06-14T02:12:32;16.90;58.30
7494;DHT22;3788;49.902;8.590;2023-06-14T02:15:00;16.90;58.50
7494;DHT22;3788;49.902;8.590;2023-06-14T02:17:29;16.80;58.40
7494;DHT22;3788;49.902;8.590;2023-06-14T02:19:56;16.80;58.50
7494;DHT22;3788;49.902;8.590;2023-06-14T02:22:23;16.80;58.60
7494;DHT22;3788;49.902;8.590;2023-06-14T02:24:50;16.80;58.70
7494;DHT22;3788;49.902;8.590;2023-06-14T02:27:17;16.80;58.70
7494;DHT22;3788;49.902;8.590;2023-06-14T02:29:44;16.80;58.80
7494;DHT22;3788;49.902;8.590;2023-06-14T02:32:12;16.70;58.80
7494;DHT22;3788;49.902;8.590;2023-06-14T02:34:39;16.70;58.80
7494;DHT22;3788;49.902;8.590;2023-06-14T02:37:06;16.70;58.80
7494;DHT22;3788;49.902;8.590;2023-06-14T02:39:33;16.70;58.90
7494;DHT22;3788;49.902;8.590;2023-06-14T02:42:00;16.70;59.00
7494;DHT22;3788;49.902;8.590;2023-06-14T02:44:27;16.70;59.10
7494;DHT22;3788;49.902;8.590;2023-06-14T02:46:54;16.60;59.10
7494;DHT22;3788;49.902;8.590;2023-06-14T02:49:22;16.60;59.20
7494;DHT22;3788;49.902;8.590;2023-06-14T02:51:49;16.60;59.20
7494;DHT22;3788;49.902;8.590;2023-06-14T02:54:16;16.60;59.20
7494;DHT22;3788;49.902;8.590;2023-06-14T02:56:43;16.60;59.20
7494;DHT22;3788;49.902;8.590;2023-06-14T02:59:09;16.50;59.30
7494;DHT22;3788;49.902;8.590;2023-06-14T03:01:36;16.50;59.40
7494;DHT22;3788;49.902;8.590;2023-06-14T03:04:06;16.50;59.50
7494;DHT22;3788;49.902;8.590;2023-06-14T03:06:35;16.40;59.40
7494;DHT22;3788;49.902;8.590;2023-06-14T03:09:02;16.40;59.50
7494;DHT22;3788;49.902;8.590;2023-06-14T03:11:30;16.40;59.70
7494;DHT22;3788;49.902;8.590;2023-06-14T03:13:56;16.40;59.70
7494;DHT22;3788;49.902;8.590;2023-06-14T03:16:23;16.40;59.70
7494;DHT22;3788;49.902;8.590;2023-06-14T03:18:52;16.40;59.80
7494;DHT22;3788;49.902;8.590;2023-06-14T03:21:19;16.40;59.80
7494;DHT22;3788;49.902;8.590;2023-06-14T03:23:47;16.40;59.90
7494;DHT22;3788;49.902;8.590;2023-06-14T03:26:14;16.30;59.90
7494;DHT22;3788;49.902;8.590;2023-06-14T03:28:43;16.30;60.10
7494;DHT22;3788;49.902;8.590;2023-06-14T03:31:10;16.30;60.20
7494;DHT22;3788;49.902;8.590;2023-06-14T03:33:36;16.30;60.30
7494;DHT22;3788;49.902;8.590;2023-06-14T03:36:03;16.30;60.40
7494;DHT22;3788;49.902;8.590;2023-06-14T03:38:30;16.30;60.40
7494;DHT22;3788;49.902;8.590;2023-06-14T03:40:58;16.30;60.40
7494;DHT22;3788;49.902;8.590;2023-06-14T03:43:25;16.30;60.50
7494;DHT22;3788;49.902;8.590;2023-06-14T03:45:52;16.30;60.50
7494;DHT22;3788;49.902;8.590;2023-06-14T03:48:19;16.30;60.50
7494;DHT22;3788;49.902;8.590;2023-06-14T03:50:46;16.30;60.60
7494;DHT22;3788;49.902;8.590;2023-06-14T03:53:13;16.30;60.60
7494;DHT22;3788;49.902;8.590;2023-06-14T03:55:40;16.30;60.50
7494;DHT22;3788;49.902;8.590;2023-06-14T03:58:08;16.30;60.60
7494;DHT22;3788;49.902;8.590;2023-06-14T04:00:35;16.30;60.60
7494;DHT22;3788;49.902;8.590;2023-06-14T04:03:01;16.30;60.60
7494;DHT22;3788;49.902;8.590;2023-06-14T04:05:31;16.30;60.60
7494;DHT22;3788;49.902;8.590;2023-06-14T04:07:57;16.30;60.60
7494;DHT22;3788;49.902;8.590;2023-06-14T04:10:26;16.30;60.70
7494;DHT22;3788;49.902;8.590;2023-06-14T04:12:52;16.20;60.60
7494;DHT22;3788;49.902;8.590;2023-06-14T04:15:20;16.30;60.60
7494;DHT22;3788;49.902;8.590;2023-06-14T04:17:47;16.30;60.60
7494;DHT22;3788;49.902;8.590;2023-06-14T04:20:14;16.30;60.60
7494;DHT22;3788;49.902;8.590;2023-06-14T04:22:40;16.40;60.60
7494;DHT22;3788;49.902;8.590;2023-06-14T04:25:08;16.40;60.60
7494;DHT22;3788;49.902;8.590;2023-06-14T04:27:35;16.40;60.60
7494;DHT22;3788;49.902;8.590;2023-06-14T04:30:02;16.50;60.70
7494;DHT22;3788;49.902;8.590;2023-06-14T04:32:30;16.50;60.60
7494;DHT22;3788;49.902;8.590;2023-06-14T04:34:58;16.50;60.80
7494;DHT22;3788;49.902;8.590;2023-06-14T04:37:27;16.60;60.80
7494;DHT22;3788;49.902;8.590;2023-06-14T04:39:54;16.60;60.80
7494;DHT22;3788;49.902;8.590;2023-06-14T04:42:21;16.70;61.00
7494;DHT22;3788;49.902;8.590;2023-06-14T04:44:50;16.70;61.00
7494;DHT22;3788;49.902;8.590;2023-06-14T04:47:20;16.70;60.90
7494;DHT22;3788;49.902;8.590;2023-06-14T04:49:48;16.80;60.70
7494;DHT22;3788;49.902;8.590;2023-06-14T04:52:16;16.90;60.60
7494;DHT22;3788;49.902;8.590;2023-06-14T04:54:42;16.90;60.30
7494;DHT22;3788;49.902;8.590;2023-06-14T04:57:09;17.00;60.00
7494;DHT22;3788;49.902;8.590;2023-06-14T04:59:39;17.10;59.90
7494;DHT22;3788;49.902;8.590;2023-06-14T05:02:05;17.10;59.90
7494;DHT22;3788;49.902;8.590;2023-06-14T05:04:34;17.10;59.80
7494;DHT22;3788;49.902;8.590;2023-06-14T05:07:06;17.10;59.80
7494;DHT22;3788;49.902;8.590;2023-06-14T05:09:33;17.20;59.70
7494;DHT22;3788;49.902;8.590;2023-06-14T05:12:00;17.20;59.60
7494;DHT22;3788;49.902;8.590;2023-06-14T05:14:26;17.30;59.70
7494;DHT22;3788;49.902;8.590;2023-06-14T05:16:53;17.30;59.40
7494;DHT22;3788;49.902;8.590;2023-06-14T05:19:20;17.30;59.50
7494;DHT22;3788;49.902;8.590;2023-06-14T05:21:47;17.30;59.70
7494;DHT22;3788;49.902;8.590;2023-06-14T05:24:15;17.30;59.50
7494;DHT22;3788;49.902;8.590;2023-06-14T05:26:43;17.40;59.70
7494;DHT22;3788;49.902;8.590;2023-06-14T05:29:10;17.40;59.50
7494;DHT22;3788;49.902;8.590;2023-06-14T05:31:37;17.50;59.50
7494;DHT22;3788;49.902;8.590;2023-06-14T05:34:04;17.50;59.20
7494;DHT22;3788;49.902;8.590;2023-06-14T05:36:31;17.60;59.30
7494;DHT22;3788;49.902;8.590;2023-06-14T05:38:57;17.60;59.20
7494;DHT22;3788;49.902;8.590;2023-06-14T05:41:26;17.60;59.10
7494;DHT22;3788;49.902;8.590;2023-06-14T05:43:54;17.70;59.10
7494;DHT22;3788;49.902;8.590;2023-06-14T05:46:23;17.70;58.80
7494;DHT22;3788;49.902;8.590;2023-06-14T05:48:51;17.80;58.90
7494;DHT22;3788;49.902;8.590;2023-06-14T05:51:18;17.80;59.40
7494;DHT22;3788;49.902;8.590;2023-06-14T05:53:47;17.90;58.80
7494;DHT22;3788;49.902;8.590;2023-06-14T05:56:14;17.90;58.70
7494;DHT22;3788;49.902;8.590;2023-06-14T05:58:44;17.90;58.80
7494;DHT22;3788;49.902;8.590;2023-06-14T06:01:11;18.00;58.90
7494;DHT22;3788;49.902;8.590;2023-06-14T06:03:38;18.00;58.80
7494;DHT22;3788;49.902;8.590;2023-06-14T06:06:05;18.00;58.80
7494;DHT22;3788;49.902;8.590;2023-06-14T06:08:33;18.00;58.80
7494;DHT22;3788;49.902;8.590;2023-06-14T06:11:00;18.10;58.80
7494;DHT22;3788;49.902;8.590;2023-06-14T06:13:27;18.10;58.90
7494;DHT22;3788;49.902;8.590;2023-06-14T06:15:55;18.20;59.00
7494;DHT22;3788;49.902;8.590;2023-06-14T06:18:22;18.20;59.00
7494;DHT22;3788;49.902;8.590;2023-06-14T06:20:48;18.20;58.90
7494;DHT22;3788;49.902;8.590;2023-06-14T06:23:15;18.30;59.00
7494;DHT22;3788;49.902;8.590;2023-06-14T06:25:43;18.30;58.80
7494;DHT22;3788;49.902;8.590;2023-06-14T06:28:09;18.40;58.80
7494;DHT22;3788;49.902;8.590;2023-06-14T06:30:36;18.40;58.80
7494;DHT22;3788;49.902;8.590;2023-06-14T06:33:04;18.40;58.70
7494;DHT22;3788;49.902;8.590;2023-06-14T06:35:31;18.50;58.80
7494;DHT22;3788;49.902;8.590;2023-06-14T06:37:59;18.50;58.70
7494;DHT22;3788;49.902;8.590;2023-06-14T06:40:26;18.60;58.60
7494;DHT22;3788;49.902;8.590;2023-06-14T06:42:52;18.60;58.30
7494;DHT22;3788;49.902;8.590;2023-06-14T06:45:19;18.70;58.50
7494;DHT22;3788;49.902;8.590;2023-06-14T06:47:46;18.80;58.30
7494;DHT22;3788;49.902;8.590;2023-06-14T06:50:14;18.80;58.20
7494;DHT22;3788;49.902;8.590;2023-06-14T06:52:41;18.90;58.20
7494;DHT22;3788;49.902;8.590;2023-06-14T06:55:08;18.90;58.30
7494;DHT22;3788;49.902;8.590;2023-06-14T06:57:36;19.00;58.30
7494;DHT22;3788;49.902;8.590;2023-06-14T07:00:03;19.10;57.90
7494;DHT22;3788;49.902;8.590;2023-06-14T07:02:33;19.10;58.10
7494;DHT22;3788;49.902;8.590;2023-06-14T07:05:00;19.20;57.80
7494;DHT22;3788;49.902;8.590;2023-06-14T07:07:28;19.30;57.80
7494;DHT22;3788;49.902;8.590;2023-06-14T07:09:54;19.40;57.70
7494;DHT22;3788;49.902;8.590;2023-06-14T07:12:22;19.50;57.60
7494;DHT22;3788;49.902;8.590;2023-06-14T07:14:49;19.60;57.30
7494;DHT22;3788;49.902;8.590;2023-06-14T07:17:16;19.60;57.30
7494;DHT22;3788;49.902;8.590;2023-06-14T07:19:42;19.60;56.90
7494;DHT22;3788;49.902;8.590;2023-06-14T07:22:09;19.70;57.00
7494;DHT22;3788;49.902;8.590;2023-06-14T07:24:37;19.80;56.80
7494;DHT22;3788;49.902;8.590;2023-06-14T07:27:06;19.90;56.80
7494;DHT22;3788;49.902;8.590;2023-06-14T07:29:33;20.00;56.70
7494;DHT22;3788;49.902;8.590;2023-06-14T07:31:59;20.10;56.60
7494;DHT22;3788;49.902;8.590;2023-06-14T07:34:27;20.50;56.50
7494;DHT22;3788;49.902;8.590;2023-06-14T07:36:53;21.40;55.40
7494;DHT22;3788;49.902;8.590;2023-06-14T07:39:20;22.30;54.20
7494;DHT22;3788;49.902;8.590;2023-06-14T07:41:48;23.20;52.80
7494;DHT22;3788;49.902;8.590;2023-06-14T07:44:15;24.00;51.40
7494;DHT22;3788;49.902;8.590;2023-06-14T07:46:42;24.60;50.00
7494;DHT22;3788;49.902;8.590;2023-06-14T07:49:09;25.00;49.20
7494;DHT22;3788;49.902;8.590;2023-06-14T07:51:36;25.50;48.70
7494;DHT22;3788;49.902;8.590;2023-06-14T07:54:03;25.80;47.90
7494;DHT22;3788;49.902;8.590;2023-06-14T07:56:32;26.00;47.00
7494;DHT22;3788;49.902;8.590;2023-06-14T07:59:00;26.20;47.00
7494;DHT22;3788;49.902;8.590;2023-06-14T08:01:27;26.30;46.30
7494;DHT22;3788;49.902;8.590;2023-06-14T08:03:54;26.60;46.50
7494;DHT22;3788;49.902;8.590;2023-06-14T08:06:20;27.00;45.90
7494;DHT22;3788;49.902;8.590;2023-06-14T08:08:47;27.00;44.80
7494;DHT22;3788;49.902;8.590;2023-06-14T08:11:14;27.00;44.80
7494;DHT22;3788;49.902;8.590;2023-06-14T08:13:40;27.00;44.50
7494;DHT22;3788;49.902;8.590;2023-06-14T08:16:09;27.10;44.90
7494;DHT22;3788;49.902;8.590;2023-06-14T08:18:36;27.40;44.60
7494;DHT22;3788;49.902;8.590;2023-06-14T08:21:03;27.60;44.10
7494;DHT22;3788;49.902;8.590;2023-06-14T08:23:29;27.70;44.00
7494;DHT22;3788;49.902;8.590;2023-06-14T08:25:56;27.80;44.00
7494;DHT22;3788;49.902;8.590;2023-06-14T08:28:24;27.90;44.20
7494;DHT22;3788;49.902;8.590;2023-06-14T08:30:50;28.20;43.70
7494;DHT22;3788;49.902;8.590;2023-06-14T08:33:18;28.20;42.90
7494;DHT22;3788;49.902;8.590;2023-06-14T08:35:45;28.20;42.50
7494;DHT22;3788;49.902;8.590;2023-06-14T08:38:12;28.30;42.20
7494;DHT22;3788;49.902;8.590;2023-06-14T08:40:39;28.30;41.80
7494;DHT22;3788;49.902;8.590;2023-06-14T08:43:07;28.30;41.70
7494;DHT22;3788;49.902;8.590;2023-06-14T08:45:34;28.20;41.80
7494;DHT22;3788;49.902;8.590;2023-06-14T08:48:01;28.20;42.00
7494;DHT22;3788;49.902;8.590;2023-06-14T08:50:30;28.20;41.50
7494;DHT22;3788;49.902;8.590;2023-06-14T08:53:01;28.10;41.60
7494;DHT22;3788;49.902;8.590;2023-06-14T08:55:29;28.20;41.80
7494;DHT22;3788;49.902;8.590;2023-06-14T08:57:57;28.20;41.20
7494;DHT22;3788;49.902;8.590;2023-06-14T09:00:25;28.20;41.20
7494;DHT22;3788;49.902;8.590;2023-06-14T09:02:52;28.30;40.90
7494;DHT22;3788;49.902;8.590;2023-06-14T09:05:23;28.20;40.80
7494;DHT22;3788;49.902;8.590;2023-06-14T09:07:52;27.90;40.90
7494;DHT22;3788;49.902;8.590;2023-06-14T09:10:22;27.90;40.90
7494;DHT22;3788;49.902;8.590;2023-06-14T09:12:51;27.90;40.90
7494;DHT22;3788;49.902;8.590;2023-06-14T09:15:17;28.10;40.70
7494;DHT22;3788;49.902;8.590;2023-06-14T09:17:45;28.30;40.60
7494;DHT22;3788;49.902;8.590;2023-06-14T09:20:12;28.50;40.30
7494;DHT22;3788;49.902;8.590;2023-06-14T09:22:43;28.60;40.10
7494;DHT22;3788;49.902;8.590;2023-06-14T09:25:11;28.40;39.60
7494;DHT22;3788;49.902;8.590;2023-06-14T09:27:40;28.20;38.20
7494;DHT22;3788;49.902;8.590;2023-06-14T09:30:09;27.90;38.10
7494;DHT22;3788;49.902;8.590;2023-06-14T09:32:37;27.80;39.20
7494;DHT22;3788;49.902;8.590;2023-06-14T09:35:05;27.70;39.50
7494;DHT22;3788;49.902;8.590;2023-06-14T09:37:33;27.80;40.20
7494;DHT22;3788;49.902;8.590;2023-06-14T09:40:00;27.80;39.50
7494;DHT22;3788;49.902;8.590;2023-06-14T09:42:28;28.00;39.60
7494;DHT22;3788;49.902;8.590;2023-06-14T09:44:56;28.30;39.80
7494;DHT22;3788;49.902;8.590;2023-06-14T09:47:23;28.60;39.80
7494;DHT22;3788;49.902;8.590;2023-06-14T09:49:50;28.80;39.40
7494;DHT22;3788;49.902;8.590;2023-06-14T09:52:18;28.40;39.00
7494;DHT22;3788;49.902;8.590;2023-06-14T09:54:46;28.20;39.60
7494;DHT22;3788;49.902;8.590;2023-06-14T09:57:14;28.20;39.90
7494;DHT22;3788;49.902;8.590;2023-06-14T09:59:44;28.10;39.80
7494;DHT22;3788;49.902;8.590;2023-06-14T10:02:18;28.30;40.20
7494;DHT22;3788;49.902;8.590;2023-06-14T10:04:56;28.60;40.90
7494;DHT22;3788;49.902;8.590;2023-06-14T10:07:26;28.60;40.70
7494;DHT22;3788;49.902;8.590;2023-06-14T10:09:56;28.60;40.40
7494;DHT22;3788;49.902;8.590;2023-06-14T10:12:24;28.60;40.70
7494;DHT22;3788;49.902;8.590;2023-06-14T10:14:52;28.70;39.80
7494;DHT22;3788;49.902;8.590;2023-06-14T10:17:24;28.70;39.80
7494;DHT22;3788;49.902;8.590;2023-06-14T10:19:55;28.70;40.30
7494;DHT22;3788;49.902;8.590;2023-06-14T10:22:30;28.60;40.60
7494;DHT22;3788;49.902;8.590;2023-06-14T10:25:00;28.60;40.80
7494;DHT22;3788;49.902;8.590;2023-06-14T10:27:26;28.60;40.90
7494;DHT22;3788;49.902;8.590;2023-06-14T10:30:25;28.60;41.00
7494;DHT22;3788;49.902;8.590;2023-06-14T10:33:05;28.50;41.00
7494;DHT22;3788;49.902;8.590;2023-06-14T10:35:32;28.40;40.50
7494;DHT22;3788;49.902;8.590;2023-06-14T10:38:07;28.40;40.90
7494;DHT22;3788;49.902;8.590;2023-06-14T10:40:34;28.30;40.90
7494;DHT22;3788;49.902;8.590;2023-06-14T10:43:21;28.20;41.10
7494;DHT22;3788;49.902;8.590;2023-06-14T10:46:17;28.20;41.30
7494;DHT22;3788;49.902;8.590;2023-06-14T10:48:47;28.10;41.30
7494;DHT22;3788;49.902;8.590;2023-06-14T10:51:17;28.00;41.00
7494;DHT22;3788;49.902;8.590;2023-06-14T10:53:47;28.00;41.50
7494;DHT22;3788;49.902;8.590;2023-06-14T10:56:28;27.80;42.10
7494;DHT22;3788;49.902;8.590;2023-06-14T10:58:56;27.50;41.70
7494;DHT22;3788;49.902;8.590;2023-06-14T11:01:36;27.20;41.90
7494;DHT22;3788;49.902;8.590;2023-06-14T11:04:07;26.90;42.10
7494;DHT22;3788;49.902;8.590;2023-06-14T11:06:46;26.70;42.60
7494;DHT22;3788;49.902;8.590;2023-06-14T11:12:12;26.40;43.40
7494;DHT22;3788;49.902;8.590;2023-06-14T11:14:39;26.20;43.30
7494;DHT22;3788;49.902;8.590;2023-06-14T11:17:07;26.10;43.50
7494;DHT22;3788;49.902;8.590;2023-06-14T11:19:34;25.90;43.80
7494;DHT22;3788;49.902;8.590;2023-06-14T11:22:01;25.70;44.10
7494;DHT22;3788;49.902;8.590;2023-06-14T11:24:28;25.60;44.40
7494;DHT22;3788;49.902;8.590;2023-06-14T11:26:55;25.50;44.60
7494;DHT22;3788;49.902;8.590;2023-06-14T11:29:23;25.40;44.60
7494;DHT22;3788;49.902;8.590;2023-06-14T11:31:50;25.40;44.60
7494;DHT22;3788;49.902;8.590;2023-06-14T11:34:18;25.70;44.00
7494;DHT22;3788;49.902;8.590;2023-06-14T11:36:46;25.90;43.60
7494;DHT22;3788;49.902;8.590;2023-06-14T11:39:13;26.20;43.00
7494;DHT22;3788;49.902;8.590;2023-06-14T11:41:42;26.40;42.80
7494;DHT22;3788;49.902;8.590;2023-06-14T11:44:09;26.40;42.30
7494;DHT22;3788;49.902;8.590;2023-06-14T11:46:37;26.40;42.30
7494;DHT22;3788;49.902;8.590;2023-06-14T11:49:04;26.20;42.30
7494;DHT22;3788;49.902;8.590;2023-06-14T11:51:34;26.00;43.00
7494;DHT22;3788;49.902;8.590;2023-06-14T11:54:02;25.70;43.40
7494;DHT22;3788;49.902;8.590;2023-06-14T11:56:29;25.50;44.30
7494;DHT22;3788;49.902;8.590;2023-06-14T11:58:56;25.40;43.70
7494;DHT22;3788;49.902;8.590;2023-06-14T12:01:23;25.30;43.90
7494;DHT22;3788;49.902;8.590;2023-06-14T12:03:52;25.20;44.10
7494;DHT22;3788;49.902;8.590;2023-06-14T12:06:26;25.10;43.90
7494;DHT22;3788;49.902;8.590;2023-06-14T12:08:56;25.10;44.00
7494;DHT22;3788;49.902;8.590;2023-06-14T12:11:23;25.10;44.10
7494;DHT22;3788;49.902;8.590;2023-06-14T12:13:50;25.10;44.10
7494;DHT22;3788;49.902;8.590;2023-06-14T12:16:17;25.20;44.10
7494;DHT22;3788;49.902;8.590;2023-06-14T12:18:44;25.20;44.00
7494;DHT22;3788;49.902;8.590;2023-06-14T12:21:10;25.20;44.10
7494;DHT22;3788;49.902;8.590;2023-06-14T12:23:45;25.30;44.20
7494;DHT22;3788;49.902;8.590;2023-06-14T12:26:16;25.20;43.80
7494;DHT22;3788;49.902;8.590;2023-06-14T12:28:45;25.10;43.60
7494;DHT22;3788;49.902;8.590;2023-06-14T12:31:12;25.10;43.70
7494;DHT22;3788;49.902;8.590;2023-06-14T12:33:40;25.10;44.00
7494;DHT22;3788;49.902;8.590;2023-06-14T12:36:08;25.20;44.10
7494;DHT22;3788;49.902;8.590;2023-06-14T12:38:35;25.10;44.00
7494;DHT22;3788;49.902;8.590;2023-06-14T12:41:02;25.10;43.80
7494;DHT22;3788;49.902;8.590;2023-06-14T12:43:30;25.10;44.00
7494;DHT22;3788;49.902;8.590;2023-06-14T12:45:57;25.00;44.30
7494;DHT22;3788;49.902;8.590;2023-06-14T12:48:24;24.90;44.60
7494;DHT22;3788;49.902;8.590;2023-06-14T12:50:52;24.90;43.80
7494;DHT22;3788;49.902;8.590;2023-06-14T12:53:19;24.90;44.10
7494;DHT22;3788;49.902;8.590;2023-06-14T12:55:46;24.90;44.60
7494;DHT22;3788;49.902;8.590;2023-06-14T12:58:13;24.90;44.30
7494;DHT22;3788;49.902;8.590;2023-06-14T13:00:41;25.00;44.10
7494;DHT22;3788;49.902;8.590;2023-06-14T13:03:09;25.00;44.10
7494;DHT22;3788;49.902;8.590;2023-06-14T13:05:36;25.10;43.90
7494;DHT22;3788;49.902;8.590;2023-06-14T13:08:06;25.20;44.30
7494;DHT22;3788;49.902;8.590;2023-06-14T13:10:34;25.40;42.90
7494;DHT22;3788;49.902;8.590;2023-06-14T13:13:00;25.40;42.80
7494;DHT22;3788;49.902;8.590;2023-06-14T13:15:28;25.40;43.40
7494;DHT22;3788;49.902;8.590;2023-06-14T13:17:56;25.40;43.70
7494;DHT22;3788;49.902;8.590;2023-06-14T13:20:23;25.20;43.80
7494;DHT22;3788;49.902;8.590;2023-06-14T13:22:49;25.10;42.90
7494;DHT22;3788;49.902;8.590;2023-06-14T13:25:16;25.10;43.00
7494;DHT22;3788;49.902;8.590;2023-06-14T13:27:43;25.20;43.10
7494;DHT22;3788;49.902;8.590;2023-06-14T13:30:10;25.20;42.70
7494;DHT22;3788;49.902;8.590;2023-06-14T13:32:37;25.20;43.40
7494;DHT22;3788;49.902;8.590;2023-06-14T13:35:06;25.30;42.90
7494;DHT22;3788;49.902;8.590;2023-06-14T13:37:33;25.20;43.20
7494;DHT22;3788;49.902;8.590;2023-06-14T13:39:59;25.00;43.60
7494;DHT22;3788;49.902;8.590;2023-06-14T13:42:27;24.90;44.10
7494;DHT22;3788;49.902;8.590;2023-06-14T13:44:56;24.70;44.30
7494;DHT22;3788;49.902;8.590;2023-06-14T13:47:23;24.50;44.50
7494;DHT22;3788;49.902;8.590;2023-06-14T13:49:50;24.40;44.80
7494;DHT22;3788;49.902;8.590;2023-06-14T13:52:18;24.40;45.10
7494;DHT22;3788;49.902;8.590;2023-06-14T13:54:45;24.60;44.80
7494;DHT22;3788;49.902;8.590;2023-06-14T13:57:11;24.70;44.70
7494;DHT22;3788;49.902;8.590;2023-06-14T13:59:38;25.00;44.80
7494;DHT22;3788;49.902;8.590;2023-06-14T14:02:06;25.10;43.80
7494;DHT22;3788;49.902;8.590;2023-06-14T14:04:33;25.20;43.20
7494;DHT22;3788;49.902;8.590;2023-06-14T14:07:00;25.30;43.20
7494;DHT22;3788;49.902;8.590;2023-06-14T14:09:28;25.30;43.00
7494;DHT22;3788;49.902;8.590;2023-06-14T14:11:55;25.20;43.10
7494;DHT22;3788;49.902;8.590;2023-06-14T14:14:22;25.10;43.60
7494;DHT22;3788;49.902;8.590;2023-06-14T14:16:49;25.10;43.20
7494;DHT22;3788;49.902;8.590;2023-06-14T14:19:16;25.10;43.50
7494;DHT22;3788;49.902;8.590;2023-06-14T14:21:44;25.00;43.10
7494;DHT22;3788;49.902;8.590;2023-06-14T14:24:10;25.00;42.90
7494;DHT22;3788;49.902;8.590;2023-06-14T14:26:39;25.10;43.10
7494;DHT22;3788;49.902;8.590;2023-06-14T14:29:06;25.10;43.30
7494;DHT22;3788;49.902;8.590;2023-06-14T14:31:32;25.20;43.40
7494;DHT22;3788;49.902;8.590;2023-06-14T14:33:59;25.20;43.20
7494;DHT22;3788;49.902;8.590;2023-06-14T14:36:26;25.20;43.40
7494;DHT22;3788;49.902;8.590;2023-06-14T14:38:53;25.30;43.40
7494;DHT22;3788;49.902;8.590;2023-06-14T14:41:19;25.30;43.40
7494;DHT22;3788;49.902;8.590;2023-06-14T14:43:47;25.30;42.30
7494;DHT22;3788;49.902;8.590;2023-06-14T14:46:15;25.30;42.00
7494;DHT22;3788;49.902;8.590;2023-06-14T14:48:42;25.30;42.00
7494;DHT22;3788;49.902;8.590;2023-06-14T14:51:08;25.40;42.10
7494;DHT22;3788;49.902;8.590;2023-06-14T14:53:35;25.50;42.30
7494;DHT22;3788;49.902;8.590;2023-06-14T14:56:02;25.50;42.50
7494;DHT22;3788;49.902;8.590;2023-06-14T14:58:29;25.60;42.40
7494;DHT22;3788;49.902;8.590;2023-06-14T15:01:06;25.60;42.30
7494;DHT22;3788;49.902;8.590;2023-06-14T15:03:36;25.60;42.40
7494;DHT22;3788;49.902;8.590;2023-06-14T15:06:03;25.60;41.80
7494;DHT22;3788;49.902;8.590;2023-06-14T15:08:30;25.40;41.30
7494;DHT22;3788;49.902;8.590;2023-06-14T15:10:57;25.30;41.70
7494;DHT22;3788;49.902;8.590;2023-06-14T15:13:23;25.10;41.80
7494;DHT22;3788;49.902;8.590;2023-06-14T15:15:50;25.00;41.50
7494;DHT22;3788;49.902;8.590;2023-06-14T15:18:18;24.90;41.60
7494;DHT22;3788;49.902;8.590;2023-06-14T15:20:46;24.90;41.80
7494;DHT22;3788;49.902;8.590;2023-06-14T15:23:12;24.90;41.60
7494;DHT22;3788;49.902;8.590;2023-06-14T15:25:45;24.90;41.40
7494;DHT22;3788;49.902;8.590;2023-06-14T15:28:12;24.90;41.80
7494;DHT22;3788;49.902;8.590;2023-06-14T15:30:39;24.90;41.60
7494;DHT22;3788;49.902;8.590;2023-06-14T15:33:06;24.90;41.60
7494;DHT22;3788;49.902;8.590;2023-06-14T15:35:34;24.90;41.90
7494;DHT22;3788;49.902;8.590;2023-06-14T15:38:01;25.00;41.90
7494;DHT22;3788;49.902;8.590;2023-06-14T15:40:28;25.10;41.80
7494;DHT22;3788;49.902;8.590;2023-06-14T15:42:55;25.20;42.80
7494;DHT22;3788;49.902;8.590;2023-06-14T15:45:21;25.20;43.00
7494;DHT22;3788;49.902;8.590;2023-06-14T15:47:48;25.20;42.90
7494;DHT22;3788;49.902;8.590;2023-06-14T15:50:15;25.10;42.70
7494;DHT22;3788;49.902;8.590;2023-06-14T15:52:43;25.10;42.90
7494;DHT22;3788;49.902;8.590;2023-06-14T15:55:09;25.00;42.80
7494;DHT22;3788;49.902;8.590;2023-06-14T15:57:36;24.80;42.70
7494;DHT22;3788;49.902;8.590;2023-06-14T16:00:04;24.70;42.90
7494;DHT22;3788;49.902;8.590;2023-06-14T16:02:31;24.60;43.10
7494;DHT22;3788;49.902;8.590;2023-06-14T16:04:58;24.50;43.30
7494;DHT22;3788;49.902;8.590;2023-06-14T16:07:24;24.40;43.40
7494;DHT22;3788;49.902;8.590;2023-06-14T16:09:52;24.40;43.90